Time;durP1;ratioP1;P1;durP2;ratioP2;P2;SDS_P1;SDS_P2;PMS_P1;PMS_P2;Temp;Humidity;BMP_temperature;BMP_pressure;BME280_temperature;BME280_humidity;BME280_pressure;Samples;Min_cycle;Max_cycle;Signal;HPM_P1;HPM_P2
2021/09/17 00:13:12;;;;;;;0.30;0.20;;;11.50;1.40;;;12.58;100.00;95480.38;615736;230;24667;-73
2021/09/17 00:15:54;;;;;;;0.40;0.20;;;11.40;1.40;;;12.48;100.00;95472.83;616919;226;31980;-73
2021/09/17 00:18:36;;;;;;;0.40;0.30;;;11.40;1.40;;;12.35;100.00;95476.88;648639;216;31563;-73
2021/09/17 00:21:17;;;;;;;0.40;0.20;;;11.30;1.40;;;12.28;100.00;95478.38;618708;222;31988;-72
2021/09/17 00:23:59;;;;;;;0.40;0.20;;;11.30;1.40;;;12.21;100.00;95478.14;645412;216;35254;-73
2021/09/17 00:26:41;;;;;;;0.40;0.20;;;11.20;1.40;;;12.16;100.00;95479.66;645951;212;32044;-74
2021/09/17 00:29:22;;;;;;;0.40;0.20;;;11.10;1.40;;;12.04;100.00;95479.18;647137;212;42215;-73
2021/09/17 00:32:05;;;;;;;0.40;0.20;;;11.00;1.40;;;12.05;100.00;95481.34;618425;226;31835;-73
2021/09/17 00:35:51;;;;;;;1.00;0.50;;;10.90;1.40;;;11.95;100.00;95482.03;646672;216;31522;-72
2021/09/17 00:38:36;;;;;;;0.40;0.20;;;10.90;1.40;;;11.83;100.00;95481.72;645624;212;32037;-73
2021/09/17 00:41:18;;;;;;;0.40;0.40;;;10.80;1.40;;;11.74;100.00;95480.47;640612;216;31662;-72
2021/09/17 00:44:00;;;;;;;0.40;0.20;;;10.70;1.40;;;11.71;100.00;95480.11;645569;212;31767;-73
2021/09/17 00:49:16;;;;;;;0.40;0.20;;;10.50;1.40;;;11.71;100.00;95474.44;646350;212;39842;-73
2021/09/17 00:51:57;;;;;;;0.40;0.20;;;10.50;1.40;;;11.65;100.00;95474.69;645236;212;31504;-72
2021/09/17 00:54:39;;;;;;;0.40;0.20;;;10.50;1.40;;;11.57;100.00;95466.72;645539;216;31515;-72
2021/09/17 00:57:21;;;;;;;0.40;0.20;;;10.50;1.40;;;11.54;100.00;95466.02;618401;222;31842;-73
2021/09/17 01:00:04;;;;;;;0.40;0.20;;;10.40;1.40;;;11.45;100.00;95465.95;646311;216;31605;-71
2021/09/17 01:02:46;;;;;;;0.40;0.20;;;10.30;1.40;;;11.41;100.00;95462.53;647056;216;31507;-72
2021/09/17 01:05:28;;;;;;;0.40;0.20;;;10.30;1.40;;;11.33;100.00;95462.52;646999;216;31494;-72
2021/09/17 01:08:09;;;;;;;0.40;0.20;;;10.20;1.40;;;11.28;100.00;95458.47;647250;216;31500;-72
2021/09/17 01:10:54;;;;;;;0.80;0.50;;;10.10;1.40;;;11.27;100.00;95461.25;646242;216;31560;-71
2021/09/17 01:13:36;;;;;;;0.40;0.30;;;10.20;1.40;;;11.20;100.00;95455.95;645866;216;32441;-72
2021/09/17 01:16:20;;;;;;;0.40;0.20;;;10.00;1.40;;;11.06;100.00;95452.39;646163;216;31563;-72
2021/09/17 01:19:02;;;;;;;0.40;0.40;;;9.80;1.40;;;11.02;100.00;95448.73;646442;212;31526;-73
2021/09/17 01:21:44;;;;;;;0.40;0.20;;;9.80;1.40;;;10.88;100.00;95449.38;646545;216;31482;-73
2021/09/17 01:24:25;;;;;;;0.40;0.30;;;9.70;1.40;;;10.87;100.00;95444.69;646223;216;31510;-73
2021/09/17 01:29:41;;;;;;;0.40;0.20;;;9.70;1.40;;;10.81;100.00;95443.56;646611;212;36317;-73
2021/09/17 01:32:23;;;;;;;0.40;0.20;;;9.70;1.40;;;10.91;100.00;95441.54;645650;216;31525;-73
2021/09/17 01:36:02;;;;;;;0.40;0.20;;;9.80;1.40;;;10.89;100.00;95434.87;647639;212;31506;-73
2021/09/17 01:38:43;;;;;;;0.40;0.20;;;9.70;1.40;;;10.77;100.00;95437.22;647163;212;42113;-73
2021/09/17 01:41:25;;;;;;;0.40;0.20;;;9.60;1.40;;;10.76;100.00;95429.61;616943;222;42631;-73
2021/09/17 01:44:07;;;;;;;0.40;0.20;;;9.60;1.40;;;10.82;100.00;95430.09;646300;212;33471;-72
2021/09/17 01:46:48;;;;;;;0.40;0.20;;;9.70;1.40;;;11.01;100.00;95424.96;617868;222;31833;-72
2021/09/17 01:49:33;;;;;;;0.40;0.20;;;9.90;1.40;;;11.10;100.00;95426.63;647344;216;42080;-72
2021/09/17 01:52:15;;;;;;;0.40;0.20;;;10.00;1.40;;;11.14;100.00;95424.65;646598;216;42122;-72
2021/09/17 01:54:59;;;;;;;0.40;0.20;;;10.10;1.40;;;11.27;100.00;95423.38;647240;216;31854;-72
2021/09/17 01:57:41;;;;;;;0.40;0.20;;;10.20;1.40;;;11.38;100.00;95426.38;647292;216;31731;-73
2021/09/17 02:00:23;;;;;;;0.40;0.20;;;10.30;1.40;;;11.53;100.00;95429.65;646150;216;42736;-74
2021/09/17 02:03:04;;;;;;;0.40;0.20;;;10.50;1.40;;;11.64;100.00;95429.27;646477;216;31869;-72
2021/09/17 02:05:46;;;;;;;1.60;0.50;;;10.50;1.40;;;11.65;100.00;95432.21;646510;212;31596;-73
2021/09/17 02:08:28;;;;;;;0.40;0.20;;;10.60;1.40;;;11.72;100.00;95439.46;647506;212;31614;-72
2021/09/17 02:11:09;;;;;;;0.40;0.20;;;10.60;1.40;;;11.69;100.00;95436.19;647400;213;31690;-73
2021/09/17 02:13:51;;;;;;;0.40;0.20;;;10.60;1.40;;;11.66;100.00;95437.15;645596;212;31725;-72
2021/09/17 02:16:33;;;;;;;0.40;0.20;;;10.60;1.40;;;11.76;100.00;95438.20;646567;216;31496;-73
2021/09/17 02:19:15;;;;;;;0.40;0.20;;;10.70;1.40;;;11.81;100.00;95440.76;645968;216;31912;-72
2021/09/17 02:21:59;;;;;;;0.40;0.20;;;10.80;1.40;;;11.92;100.00;95440.29;630537;217;31643;-73
2021/09/17 02:27:15;;;;;;;0.40;0.20;;;10.90;1.40;;;12.04;100.00;95445.88;645516;216;31699;-73
2021/09/17 02:29:57;;;;;;;0.40;0.20;;;11.00;1.40;;;12.23;100.00;95446.51;647071;212;31471;-73
2021/09/17 02:32:42;;;;;;;0.50;0.50;;;11.10;1.40;;;12.46;100.00;95447.91;645894;216;31493;-73
2021/09/17 02:35:51;;;;;;;0.40;0.20;;;11.10;1.40;;;12.27;100.00;95447.66;646182;216;31505;-72
2021/09/17 02:40:32;;;;;;;0.40;0.20;;;11.10;1.40;;;-143.44;100.00;122422.95;644006;216;31661;-72
2021/09/17 02:43:13;;;;;;;0.60;0.60;;;11.20;1.40;;;;;;644667;213;43240;-72
2021/09/17 02:45:54;;;;;;;0.40;0.20;;;11.20;1.40;;;;;;646709;216;31543;-73
2021/09/17 02:48:35;;;;;;;0.40;0.20;;;11.20;1.40;;;;;;647577;216;31486;-73
2021/09/17 02:51:16;;;;;;;0.40;0.20;;;11.20;1.40;;;;;;646789;216;31529;-73
2021/09/17 02:53:58;;;;;;;0.40;0.20;;;11.30;1.40;;;;;;646214;212;31519;-73
2021/09/17 02:59:16;;;;;;;0.40;0.20;;;11.30;1.40;;;;;;645765;212;42345;-73
2021/09/17 03:01:57;;;;;;;0.40;0.20;;;11.30;1.40;;;;;;646431;216;31515;-73
2021/09/17 03:04:38;;;;;;;0.40;0.20;;;11.30;1.40;;;;;;618547;226;31804;-73
2021/09/17 03:07:19;;;;;;;0.40;0.20;;;11.30;1.40;;;;;;646809;212;31540;-73
2021/09/17 03:10:00;;;;;;;0.40;0.20;;;11.30;1.40;;;;;;645875;212;42109;-71
2021/09/17 03:12:41;;;;;;;0.40;0.20;;;11.40;1.40;;;;;;645884;216;31497;-72
2021/09/17 03:15:25;;;;;;;0.40;0.20;;;11.40;1.40;;;;;;646438;216;43010;-73
2021/09/17 03:18:06;;;;;;;0.40;0.20;;;11.40;1.40;;;;;;618250;226;38669;-73
2021/09/17 03:20:50;;;;;;;0.30;0.20;;;11.40;1.40;;;;;;646335;212;31804;-72
2021/09/17 03:23:29;;;;;;;0.40;0.20;;;11.40;1.40;;;;;;646905;212;31544;-72
2021/09/17 03:26:13;;;;;;;0.40;0.20;;;11.40;1.40;;;;;;645354;212;31514;-73
2021/09/17 03:28:54;;;;;;;0.40;0.20;;;11.40;1.40;;;;;;648304;216;31470;-73
2021/09/17 03:31:43;;;;;;;0.40;0.20;;;11.40;1.40;;;;;;647852;216;32495;-74
2021/09/17 03:35:51;;;;;;;;;;;11.40;1.40;;;12.62;100.00;95432.12;652723;212;24877;-72
2021/09/17 03:38:32;;;;;;;;;;;11.40;1.40;;;12.72;100.00;95433.02;648005;217;24850;-73
2021/09/17 03:41:13;;;;;;;;;;;11.40;1.40;;;12.71;100.00;95428.94;646923;212;24836;-72
2021/09/17 03:43:55;;;;;;;;;;;11.40;1.40;;;12.73;100.00;95431.03;652513;216;24800;-72
2021/09/17 03:46:36;;;;;;;;;;;11.40;1.40;;;-143.44;100.00;122422.95;652222;212;24227;-71
2021/09/17 03:49:20;;;;;;;;;;;11.40;1.40;;;;;;654814;212;24804;-72
2021/09/17 03:52:00;;;;;;;;;;;11.40;1.40;;;;;;652541;212;24811;-72
2021/09/17 03:54:41;;;;;;;;;;;11.40;1.40;;;;;;648881;216;25214;-73
2021/09/17 03:57:22;;;;;;;;;;;11.40;1.40;;;;;;653111;216;24820;-72
2021/09/17 04:00:02;;;;;;;;;;;11.50;1.40;;;;;;650320;216;24812;-73
2021/09/17 04:02:43;;;;;;;;;;;11.50;1.40;;;;;;653450;216;24720;-74
2021/09/17 04:05:24;;;;;;;;;;;11.50;1.40;;;;;;652505;216;24982;-73
2021/09/17 04:08:04;;;;;;;;;;;11.50;1.40;;;;;;652683;212;24851;-73
2021/09/17 04:10:45;;;;;;;;;;;11.50;1.40;;;;;;653402;216;24712;-73
2021/09/17 04:13:26;;;;;;;;;;;11.40;1.40;;;;;;646928;217;24863;-73
2021/09/17 04:16:06;;;;;;;;;;;11.50;1.40;;;;;;648922;215;24816;-72
2021/09/17 04:18:50;;;;;;;;;;;11.50;1.40;;;;;;653000;212;25227;-73
2021/09/17 04:21:31;;;;;;;;;;;11.50;1.40;;;;;;652457;213;24858;-72
2021/09/17 04:24:12;;;;;;;;;;;11.50;1.40;;;;;;652504;216;24830;-72
2021/09/17 04:26:53;;;;;;;;;;;11.50;1.40;;;;;;652573;216;24793;-72
2021/09/17 04:29:34;;;;;;;;;;;11.50;1.40;;;;;;652164;216;24732;-72
2021/09/17 04:32:15;;;;;;;;;;;11.50;1.40;;;;;;652657;216;24830;-71
2021/09/17 04:35:52;;;;;;;0.40;0.20;;;11.60;1.40;;;12.81;100.00;95427.37;645299;212;31457;-72
2021/09/17 04:38:33;;;;;;;0.40;0.20;;;11.60;1.40;;;12.70;100.00;95426.44;646079;213;31549;-72
2021/09/17 04:41:15;;;;;;;0.90;0.80;;;11.50;1.40;;;12.74;100.00;95431.59;641673;212;31622;-72
2021/09/17 04:43:57;;;;;;;0.40;0.20;;;11.50;1.40;;;12.81;100.00;95433.20;644946;212;31509;-72
2021/09/17 04:46:38;;;;;;;0.40;0.20;;;11.50;1.40;;;12.69;100.00;95430.01;645324;212;31545;-72
2021/09/17 04:49:20;;;;;;;0.40;0.23;;;11.50;1.40;;;12.61;100.00;95431.77;644398;212;31476;-72
2021/09/17 04:52:02;;;;;;;0.40;0.20;;;11.50;1.40;;;12.69;100.00;95433.78;647232;212;32110;-72
2021/09/17 04:54:47;;;;;;;0.40;0.20;;;11.50;1.40;;;12.73;100.00;95432.62;617688;226;31884;-72
2021/09/17 04:57:28;;;;;;;0.40;0.20;;;11.60;1.40;;;12.65;100.00;95437.09;646851;216;32521;-74
2021/09/17 05:00:11;;;;;;;0.40;0.20;;;11.50;1.40;;;12.73;100.00;95438.42;645671;216;31522;-72
2021/09/17 05:02:52;;;;;;;0.47;0.30;;;11.50;1.40;;;12.86;100.00;95438.08;647122;212;32479;-72
2021/09/17 05:05:34;;;;;;;0.70;0.50;;;11.60;1.40;;;12.85;100.00;95441.81;645774;216;43155;-72
2021/09/17 05:08:16;;;;;;;1.60;0.50;;;11.50;1.40;;;12.86;100.00;95440.66;647224;216;32253;-72
2021/09/17 05:10:57;;;;;;;0.40;0.30;;;11.60;1.40;;;12.89;100.00;95437.98;645577;216;35450;-72
2021/09/17 05:13:39;;;;;;;0.40;0.20;;;11.60;1.40;;;13.05;100.00;95433.97;648623;216;42193;-73
2021/09/17 05:16:21;;;;;;;0.40;0.20;;;11.60;1.40;;;12.93;100.00;95443.23;645481;212;36305;-73
2021/09/17 05:19:02;;;;;;;0.40;0.20;;;11.60;1.40;;;12.90;100.00;95443.48;645324;212;31615;-72
2021/09/17 05:24:22;;;;;;;0.40;0.20;;;11.70;1.40;;;12.91;100.00;95442.37;647278;216;31477;-72
2021/09/17 05:27:03;;;;;;;0.40;0.20;;;11.70;1.40;;;12.94;100.00;95448.48;642042;215;31484;-73
2021/09/17 05:29:45;;;;;;;0.40;0.20;;;11.80;1.40;;;13.01;100.00;95443.11;648283;212;41207;-74
2021/09/17 05:32:27;;;;;;;0.40;0.20;;;11.80;1.40;;;13.07;100.00;95448.98;646650;216;31553;-73
2021/09/17 05:35:51;;;;;;;0.40;0.20;;;11.90;1.40;;;13.09;100.00;95441.28;644478;212;31481;-72
2021/09/17 05:38:33;;;;;;;0.40;0.20;;;11.90;1.40;;;13.10;100.00;95441.66;646311;216;33457;-72
2021/09/17 05:41:15;;;;;;;0.40;0.20;;;11.90;1.40;;;13.01;100.00;95446.26;640354;212;31734;-72
2021/09/17 05:43:57;;;;;;;1.10;0.40;;;12.00;1.40;;;13.14;100.00;95442.45;646060;216;32065;-73
2021/09/17 05:46:40;;;;;;;0.40;0.20;;;12.00;1.40;;;13.21;100.00;95441.95;619931;222;38915;-73
2021/09/17 05:49:22;;;;;;;0.40;0.20;;;12.00;1.40;;;13.17;100.00;95443.42;645760;216;42674;-73
2021/09/17 05:52:04;;;;;;;0.40;0.20;;;12.00;1.40;;;13.25;100.00;95445.75;644519;216;32159;-72
2021/09/17 05:54:46;;;;;;;0.40;0.20;;;12.10;1.40;;;13.24;100.00;95442.47;619971;222;42572;-72
2021/09/17 05:57:27;;;;;;;1.30;0.50;;;12.10;1.40;;;13.21;100.00;95452.02;647148;212;42348;-73
2021/09/17 06:00:10;;;;;;;0.40;0.20;;;12.10;1.40;;;13.31;100.00;95452.58;646716;212;31532;-73
2021/09/17 06:02:52;;;;;;;0.40;0.20;;;12.10;1.40;;;13.43;100.00;95449.69;647313;212;40195;-72
2021/09/17 06:05:34;;;;;;;1.30;1.10;;;12.20;1.40;;;13.68;100.00;95452.17;646210;212;31515;-73
2021/09/17 06:08:15;;;;;;;0.60;0.60;;;12.40;1.40;;;13.72;100.00;95450.21;646608;216;31531;-72
2021/09/17 06:13:33;;;;;;;0.40;0.20;;;12.40;1.40;;;13.76;100.00;95452.36;645946;212;42190;-74
2021/09/17 06:16:15;;;;;;;0.40;0.20;;;12.50;1.40;;;13.96;100.00;95453.70;647328;216;31633;-74
2021/09/17 06:19:03;;;;;;;0.40;0.20;;;12.60;1.40;;;13.80;100.00;95452.22;647301;216;42116;-73
2021/09/17 06:21:44;;;;;;;0.40;0.20;;;12.50;1.40;;;13.93;100.00;95454.92;644933;216;31481;-72
2021/09/17 06:24:26;;;;;;;0.40;0.20;;;12.60;1.40;;;14.04;100.00;95456.75;646522;212;31506;-73
2021/09/17 06:27:08;;;;;;;0.40;0.20;;;12.70;1.40;;;14.19;100.00;95456.94;648275;216;31459;-73
2021/09/17 06:29:52;;;;;;;0.40;0.20;;;12.80;1.40;;;14.25;100.00;95456.55;646786;212;31522;-73
2021/09/17 06:32:34;;;;;;;0.40;0.20;;;12.70;1.40;;;14.15;100.00;95452.24;644864;216;31567;-73
2021/09/17 06:35:53;;;;;;;0.40;0.20;;;12.60;1.40;;;13.75;100.00;95450.34;645790;216;31479;-73
2021/09/17 06:38:35;;;;;;;0.40;0.20;;;12.40;1.40;;;13.58;100.00;95451.84;645187;216;31460;-73
2021/09/17 06:43:51;;;;;;;1.60;0.70;;;12.30;1.40;;;13.72;100.00;95455.68;645569;212;31483;-72
2021/09/17 06:46:32;;;;;;;0.40;0.20;;;12.40;1.40;;;14.02;100.00;95460.24;644821;212;31817;-72
2021/09/17 06:49:14;;;;;;;0.40;0.20;;;12.60;1.40;;;14.04;100.00;95460.63;646860;216;32083;-72
2021/09/17 06:51:56;;;;;;;0.40;0.20;;;12.80;1.40;;;14.50;100.00;95456.42;646276;212;32051;-73
2021/09/17 06:54:40;;;;;;;0.40;0.30;;;13.30;1.40;;;14.56;100.00;95464.97;647280;214;31509;-73
2021/09/17 06:57:22;;;;;;;0.40;0.20;;;13.50;1.40;;;14.69;100.00;95464.98;645714;216;31547;-74
2021/09/17 07:00:11;;;;;;;0.40;0.20;;;13.60;1.40;;;14.53;100.00;95463.54;618954;226;31817;-71
2021/09/17 07:02:52;;;;;;;0.40;0.20;;;13.40;1.40;;;14.48;100.00;95461.74;644973;216;31478;-73
2021/09/17 07:05:36;;;;;;;0.40;0.20;;;13.40;1.40;;;14.50;100.00;95456.66;647075;216;31472;-73
2021/09/17 07:08:24;;;;;;;0.40;0.20;;;13.30;1.40;;;14.64;100.00;95458.65;617557;225;31915;-72
2021/09/17 07:11:05;;;;;;;0.40;0.20;;;13.50;1.40;;;14.92;100.00;95456.30;646826;216;31489;-72
2021/09/17 07:13:47;;;;;;;0.40;0.20;;;13.80;1.40;;;15.71;100.00;95457.84;647214;216;31476;-73
2021/09/17 07:16:29;;;;;;;0.40;0.20;;;14.40;1.40;;;16.16;100.00;95462.80;646809;212;31663;-73
2021/09/17 07:24:25;;;;;;;0.40;0.20;;;14.70;1.40;;;16.88;100.00;95460.86;644818;216;31504;-72
2021/09/17 07:27:13;;;;;;;0.40;0.20;;;14.80;1.40;;;16.54;100.00;95461.64;645668;216;32001;-72
2021/09/17 07:29:54;;;;;;;0.40;0.20;;;14.60;1.40;;;16.35;100.00;95460.67;646594;216;31464;-72
2021/09/17 07:32:36;;;;;;;0.40;0.20;;;14.60;1.40;;;16.23;100.00;95460.06;646111;212;31493;-73
2021/09/17 07:35:53;;;;;;;0.40;0.20;;;14.60;1.40;;;16.77;100.00;95459.58;646658;216;31521;-72
2021/09/17 07:38:35;;;;;;;0.40;0.20;;;14.70;1.40;;;16.55;100.00;95460.17;646344;216;31495;-73
2021/09/17 07:41:16;;;;;;;0.40;0.20;;;14.70;1.40;;;16.64;100.00;95460.33;644910;212;31816;-72
2021/09/17 07:43:58;;;;;;;0.40;0.20;;;14.70;1.40;;;16.56;100.00;95457.71;646700;212;31889;-72
2021/09/17 07:46:40;;;;;;;0.40;0.20;;;14.70;1.40;;;17.06;100.00;95455.76;618782;226;31794;-72
2021/09/17 07:49:25;;;;;;;0.40;0.20;;;15.00;1.40;;;17.04;100.00;95456.73;645741;213;32029;-73
2021/09/17 07:52:07;;;;;;;0.40;0.20;;;15.10;1.40;;;17.04;100.00;95456.56;646597;216;32781;-72
2021/09/17 07:54:49;;;;;;;0.40;0.20;;;15.00;1.40;;;17.24;100.00;95456.10;619243;226;31814;-73
2021/09/17 07:57:33;;;;;;;0.40;0.20;;;15.30;1.40;;;17.16;100.00;95450.34;647145;212;31501;-72
2021/09/17 08:00:15;;;;;;;0.40;0.20;;;15.20;1.40;;;16.99;100.00;95451.68;646603;212;31467;-73
2021/09/17 08:02:57;;;;;;;0.40;0.20;;;15.20;1.40;;;17.42;100.00;95450.27;645854;212;42216;-72
2021/09/17 08:05:39;;;;;;;0.40;0.20;;;15.40;1.40;;;17.46;100.00;95452.97;644981;216;31571;-73
2021/09/17 08:08:20;;;;;;;0.40;0.20;;;15.60;1.40;;;17.17;100.00;95451.95;646919;216;31601;-73
2021/09/17 08:11:02;;;;;;;0.40;0.20;;;15.40;1.40;;;17.78;100.00;95451.02;645960;212;32005;-74
2021/09/17 08:13:47;;;;;;;0.40;0.20;;;15.50;1.40;;;17.45;100.00;95460.56;646831;212;31469;-73
2021/09/17 08:16:31;;;;;;;0.40;0.20;;;15.40;1.40;;;17.52;100.00;95464.00;619063;222;32164;-74
2021/09/17 08:19:18;;;;;;;0.40;0.20;;;15.50;1.40;;;18.27;100.00;95459.80;618409;226;33702;-73
2021/09/17 08:22:06;;;;;;;0.40;0.20;;;15.60;1.40;;;18.41;100.00;95456.86;646063;216;31563;-73
2021/09/17 08:24:54;;;;;;;0.40;0.20;;;16.00;1.40;;;18.40;99.83;95463.70;619036;222;31962;-73
2021/09/17 08:27:37;;;;;;;0.40;0.20;;;16.10;1.40;;;18.69;100.00;95460.11;646306;212;31617;-74
2021/09/17 08:30:17;;;;;;;0.40;0.20;;;16.10;1.40;;;18.61;100.00;95463.41;647462;212;31479;-73
2021/09/17 08:35:58;;;;;;;0.40;0.20;;;16.40;1.40;;;18.48;94.79;95464.44;647501;212;31595;-73
2021/09/17 08:38:40;;;;;;;0.40;0.20;;;16.10;1.40;;;18.59;100.00;95464.94;646301;216;31546;-73
2021/09/17 08:41:22;;;;;;;0.40;0.20;;;16.30;1.40;;;18.96;92.73;95464.34;638456;212;42392;-72
2021/09/17 08:44:03;;;;;;;0.40;0.20;;;16.20;1.40;;;18.05;98.41;95464.13;646398;216;31926;-73
2021/09/17 08:46:45;;;;;;;0.40;0.20;;;15.90;1.40;;;18.64;96.15;95461.55;645922;216;31608;-73
2021/09/17 08:49:29;;;;;;;0.40;0.20;;;16.40;1.40;;;18.65;93.18;95465.46;645814;212;31547;-73
2021/09/17 08:52:16;;;;;;;0.40;0.20;;;16.50;1.40;;;18.85;92.64;95466.73;647248;216;42112;-73
2021/09/17 08:54:58;;;;;;;0.40;0.20;;;16.40;1.40;;;18.83;87.50;95470.94;646477;212;31459;-74
2021/09/17 08:57:40;;;;;;;0.40;0.20;;;16.30;1.40;;;18.92;94.51;95472.91;646101;212;42120;-73
2021/09/17 09:00:42;;;;;;;0.40;0.20;;;16.40;1.40;;;18.97;93.37;95470.09;619374;222;42624;-73
2021/09/17 09:03:29;;;;;;;0.40;0.20;;;16.20;1.40;;;17.77;92.00;95471.29;646540;212;31472;-73
2021/09/17 09:06:11;;;;;;;0.40;0.20;;;15.90;1.40;;;18.18;96.70;95465.56;646076;212;31509;-73
2021/09/17 09:08:57;;;;;;;0.40;0.20;;;16.10;1.40;;;18.35;96.79;95465.01;645767;213;31736;-72
2021/09/17 09:11:38;;;;;;;0.40;0.20;;;16.10;1.40;;;18.64;95.32;95462.53;646389;216;31571;-73
2021/09/17 09:14:19;;;;;;;0.40;0.20;;;16.30;1.40;;;18.60;95.41;95468.93;617733;222;31892;-73
2021/09/17 09:17:04;;;;;;;0.40;0.20;;;16.30;1.40;;;18.54;96.28;95463.45;645035;216;31708;-74
2021/09/17 09:19:43;;;;;;;0.40;0.20;;;16.40;1.40;;;18.60;95.05;95466.21;618447;226;31988;-72
2021/09/17 09:22:27;;;;;;;0.40;0.20;;;16.50;1.40;;;18.70;91.36;95459.94;646164;216;42410;-72
2021/09/17 09:25:10;;;;;;;0.40;0.20;;;16.60;1.40;;;19.14;88.35;95455.41;646337;216;31519;-73
2021/09/17 09:28:12;;;;;;;0.40;0.20;;;17.00;1.40;;;19.53;89.25;95455.66;644770;216;42157;-73
2021/09/17 09:30:55;;;;;;;0.40;0.20;;;17.20;1.40;;;19.75;83.79;95451.84;646471;216;31484;-72
2021/09/17 09:36:01;;;;;;;0.40;0.20;;;17.90;1.40;;;19.86;81.14;95442.84;645676;212;31920;-72
2021/09/17 09:38:49;;;;;;;0.40;0.20;;;17.20;1.40;;;19.60;80.54;95439.52;646500;212;31873;-72
2021/09/17 09:41:31;;;;;;;0.40;0.20;;;17.20;1.40;;;19.37;82.76;95435.87;639872;216;31667;-72
2021/09/17 09:44:15;;;;;;;0.40;0.20;;;17.00;1.40;;;19.22;84.09;95435.13;645648;216;31521;-72
2021/09/17 09:47:02;;;;;;;0.40;0.20;;;16.80;1.40;;;19.47;84.27;95432.38;645465;216;42832;-72
2021/09/17 09:49:48;;;;;;;0.40;0.20;;;16.90;1.40;;;19.02;80.07;95429.57;645623;216;31481;-74
2021/09/17 09:52:30;;;;;;;0.40;0.20;;;16.70;1.40;;;19.25;81.55;95429.19;646467;212;32006;-73
2021/09/17 09:55:17;;;;;;;0.40;0.20;;;17.10;1.40;;;19.93;81.03;95424.70;647596;216;31486;-73
2021/09/17 09:58:02;;;;;;;0.40;0.20;;;17.30;1.40;;;21.15;75.94;95421.73;646063;216;31622;-72
2021/09/17 10:00:45;;;;;;;0.40;0.20;;;20.30;1.40;;;20.97;73.06;95417.58;645725;216;31558;-73
2021/09/17 10:03:33;;;;;;;0.40;0.20;;;19.10;1.40;;;21.04;74.06;95422.88;647145;216;31508;-74
2021/09/17 10:06:15;;;;;;;0.40;0.20;;;18.60;1.40;;;21.19;74.66;95416.16;646719;216;31626;-72
2021/09/17 10:08:57;;;;;;;0.40;0.20;;;18.40;1.40;;;20.03;71.33;95420.94;619048;222;31954;-73
2021/09/17 10:11:44;;;;;;;0.40;0.20;;;17.80;1.40;;;21.70;75.01;95418.80;646223;216;31494;-72
2021/09/17 10:14:26;;;;;;;0.40;0.20;;;19.10;1.40;;;23.97;68.12;95407.00;645404;216;31455;-73
2021/09/17 10:17:19;;;;;;;0.40;0.20;;;22.00;1.40;;;25.07;59.28;95410.66;645652;216;31491;-73
2021/09/17 10:20:02;;;;;;;0.40;0.20;;;24.80;1.40;;;25.34;63.37;95411.27;644591;216;31668;-73
2021/09/17 10:22:51;;;;;;;0.40;0.20;;;22.30;1.40;;;25.21;54.50;95408.16;646364;212;31765;-72
2021/09/17 10:25:31;;;;;;;0.40;0.20;;;19.70;1.40;;;24.15;61.75;95403.28;646954;216;31644;-72
2021/09/17 10:28:15;;;;;;;0.40;0.20;;;19.20;1.40;;;23.64;64.76;95412.22;646923;212;31502;-73
2021/09/17 10:31:09;;;;;;;0.40;0.20;;;18.80;1.40;;;22.49;60.06;95411.25;617644;226;31833;-73
2021/09/17 10:35:51;;;;;;;0.40;0.20;;;17.30;1.40;;;20.80;64.53;95413.27;646546;212;32401;-73
2021/09/17 10:38:39;;;;;;;0.40;0.20;;;17.10;1.40;;;20.10;67.95;95403.34;646973;216;31642;-74
2021/09/17 10:41:21;;;;;;;0.40;0.20;;;16.90;1.40;;;19.58;66.00;95410.36;638976;216;31752;-73
2021/09/17 10:44:08;;;;;;;0.40;0.20;;;16.80;1.40;;;19.46;69.49;95402.22;646107;212;31617;-73
2021/09/17 10:46:50;;;;;;;0.40;0.20;;;16.70;1.40;;;19.56;67.92;95398.45;644556;216;31837;-72
2021/09/17 10:49:59;;;;;;;0.40;0.20;;;16.80;1.40;;;19.48;66.23;95399.73;646400;212;31486;-74
2021/09/17 10:52:40;;;;;;;0.40;0.20;;;16.80;1.40;;;19.69;67.46;95396.98;645622;212;31505;-72
2021/09/17 10:55:40;;;;;;;0.40;0.20;;;17.10;1.40;;;19.67;68.72;95397.95;647194;216;31566;-72
2021/09/17 10:58:24;;;;;;;0.40;0.20;;;17.10;1.40;;;19.91;66.44;95398.63;618484;226;32355;-73
2021/09/17 11:01:04;;;;;;;0.40;0.20;;;17.10;1.40;;;20.01;65.77;95396.80;646111;212;31680;-72
2021/09/17 11:04:02;;;;;;;0.40;0.20;;;17.10;1.40;;;19.95;63.80;95399.39;646368;212;32144;-72
2021/09/17 11:06:43;;;;;;;0.40;0.20;;;17.60;1.40;;;20.54;64.37;95395.23;646868;212;31881;-72
2021/09/17 11:09:39;;;;;;;0.40;0.20;;;18.00;1.40;;;20.39;60.93;95389.22;646891;212;31586;-72
2021/09/17 11:12:27;;;;;;;0.40;0.20;;;17.90;1.40;;;20.14;61.03;95388.00;646045;212;31487;-73
2021/09/17 11:15:15;;;;;;;0.40;0.20;;;18.10;1.40;;;20.66;59.02;95393.39;646920;216;31941;-73
2021/09/17 11:17:58;;;;;;;0.40;0.20;;;18.20;1.40;;;21.44;57.99;95392.42;620330;222;31916;-73
2021/09/17 11:20:38;;;;;;;0.40;0.20;;;18.60;1.40;;;21.80;56.29;95395.44;647222;212;32256;-72
2021/09/17 11:23:20;;;;;;;0.40;0.20;;;18.60;1.40;;;21.46;56.99;95397.87;646556;212;31612;-72
2021/09/17 11:26:04;;;;;;;0.40;0.20;;;18.40;1.40;;;21.52;56.28;95394.52;648636;216;31561;-72
2021/09/17 11:28:45;;;;;;;0.40;0.20;;;18.60;1.40;;;22.11;56.42;95390.28;644996;212;31605;-72
2021/09/17 11:31:31;;;;;;;0.40;0.20;;;18.70;1.40;;;22.10;56.88;95385.11;617551;226;32003;-73
2021/09/17 11:38:28;;;;;;;0.40;0.20;;;18.20;1.40;;;20.44;55.52;95390.86;646068;212;31483;-73
2021/09/17 11:41:15;;;;;;;0.40;0.20;;;17.90;1.40;;;20.85;56.47;95391.51;647133;212;31600;-74
2021/09/17 11:43:57;;;;;;;0.40;0.20;;;18.20;1.40;;;21.68;56.51;95379.21;646573;214;31488;-73
2021/09/17 11:46:44;;;;;;;0.40;0.20;;;18.60;1.40;;;21.13;55.15;95377.95;645017;213;42120;-73
2021/09/17 11:49:27;;;;;;;0.40;0.20;;;18.20;1.40;;;20.90;55.15;95376.30;645659;216;31489;-74
2021/09/17 11:52:14;;;;;;;0.40;0.20;;;18.20;1.40;;;21.47;57.37;95372.98;647439;216;31682;-74
2021/09/17 11:55:01;;;;;;;0.40;0.20;;;18.50;1.40;;;21.57;56.08;95371.97;645924;216;31638;-73
2021/09/17 11:57:43;;;;;;;0.40;0.20;;;18.90;1.40;;;21.17;56.32;95370.62;620317;222;31878;-73
2021/09/17 12:00:33;;;;;;;0.40;0.20;;;18.80;1.40;;;21.48;54.96;95366.39;646502;216;35363;-72
2021/09/17 12:03:21;;;;;;;0.40;0.20;;;19.10;1.40;;;22.48;54.33;95361.59;645382;216;31747;-72
2021/09/17 12:08:39;;;;;;;0.40;0.20;;;20.30;1.40;;;23.40;53.75;95362.83;646430;212;31472;-73
2021/09/17 12:11:21;;;;;;;0.40;0.20;;;20.30;1.40;;;23.84;50.43;95358.59;646272;212;31462;-72
2021/09/17 12:14:05;;;;;;;0.40;0.20;;;20.10;1.40;;;24.50;48.75;95359.70;646443;216;31746;-73
2021/09/17 12:16:48;;;;;;;0.30;0.20;;;20.10;1.40;;;23.22;50.34;95363.86;647011;216;31557;-72
2021/09/17 12:19:54;;;;;;;0.40;0.20;;;19.90;1.40;;;23.23;49.82;95361.48;644815;212;31485;-73
2021/09/17 12:22:44;;;;;;;0.40;0.20;;;19.80;1.40;;;22.68;51.18;95363.08;646081;212;31484;-73
2021/09/17 12:25:26;;;;;;;0.40;0.20;;;19.50;1.40;;;22.03;51.28;95363.84;646743;212;31494;-72
2021/09/17 12:28:18;;;;;;;0.40;0.20;;;19.20;1.40;;;22.39;50.76;95363.69;618150;226;31829;-73
2021/09/17 12:31:05;;;;;;;0.40;0.20;;;19.60;1.40;;;22.14;49.77;95366.52;645353;216;31482;-73
2021/09/17 12:35:52;;;;;;;0.40;0.20;;;19.30;1.40;;;22.64;48.63;95368.66;621031;225;31957;-73
2021/09/17 12:38:34;;;;;;;0.40;0.20;;;19.60;1.40;;;23.44;48.83;95364.64;645970;216;31550;-73
2021/09/17 12:41:16;;;;;;;0.40;0.20;;;20.20;1.40;;;22.39;47.93;95368.70;645884;216;31556;-72
2021/09/17 12:46:41;;;;;;;0.40;0.20;;;20.20;1.40;;;23.58;47.23;95355.51;647176;212;42794;-72
2021/09/17 12:49:23;;;;;;;0.40;0.20;;;21.30;1.40;;;24.09;46.06;95349.52;645131;212;31637;-73
2021/09/17 12:52:11;;;;;;;0.70;0.20;;;21.40;1.40;;;24.21;45.28;95355.45;647206;212;31555;-73
2021/09/17 12:54:52;;;;;;;0.40;0.20;;;20.80;1.40;;;26.04;45.42;95351.22;646338;212;31613;-72
2021/09/17 12:57:34;;;;;;;0.40;0.20;;;21.90;1.40;;;26.26;42.20;95348.06;645469;212;31505;-72